sensor_id;sensor_type;location;lat;lon;timestamp;P1;durP1;ratioP1;P2;durP2;ratioP2
41115;SDS011;26861;51.824;4.682;2023-06-26T00:02:25;3.05;;;2.80;;
41115;SDS011;26861;51.824;4.682;2023-06-26T00:04:51;4.38;;;2.45;;
41115;SDS011;26861;51.824;4.682;2023-06-26T00:07:20;2.40;;;2.20;;
41115;SDS011;26861;51.824;4.682;2023-06-26T00:09:46;3.00;;;2.40;;
41115;SDS011;26861;51.824;4.682;2023-06-26T00:12:13;2.88;;;2.65;;
41115;SDS011;26861;51.824;4.682;2023-06-26T00:14:40;2.92;;;2.60;;
41115;SDS011;26861;51.824;4.682;2023-06-26T00:17:06;3.13;;;2.30;;
41115;SDS011;26861;51.824;4.682;2023-06-26T00:19:32;2.38;;;2.17;;
41115;SDS011;26861;51.824;4.682;2023-06-26T00:21:59;3.00;;;2.33;;
41115;SDS011;26861;51.824;4.682;2023-06-26T00:24:25;2.88;;;2.40;;
41115;SDS011;26861;51.824;4.682;2023-06-26T00:26:51;2.70;;;2.47;;
41115;SDS011;26861;51.824;4.682;2023-06-26T00:29:17;3.15;;;2.25;;
41115;SDS011;26861;51.824;4.682;2023-06-26T00:31:43;3.15;;;2.65;;
41115;SDS011;26861;51.824;4.682;2023-06-26T00:34:09;4.28;;;2.17;;
41115;SDS011;26861;51.824;4.682;2023-06-26T00:36:35;3.42;;;2.33;;
41115;SDS011;26861;51.824;4.682;2023-06-26T00:39:01;2.65;;;2.28;;
41115;SDS011;26861;51.824;4.682;2023-06-26T00:41:29;2.35;;;2.15;;
41115;SDS011;26861;51.824;4.682;2023-06-26T00:43:55;3.70;;;2.30;;
41115;SDS011;26861;51.824;4.682;2023-06-26T00:46:21;3.35;;;2.35;;
41115;SDS011;26861;51.824;4.682;2023-06-26T00:48:46;3.80;;;2.38;;
41115;SDS011;26861;51.824;4.682;2023-06-26T00:51:14;3.13;;;1.95;;
41115;SDS011;26861;51.824;4.682;2023-06-26T00:53:40;2.28;;;1.95;;
41115;SDS011;26861;51.824;4.682;2023-06-26T00:56:06;3.80;;;2.17;;
41115;SDS011;26861;51.824;4.682;2023-06-26T00:58:32;3.30;;;2.15;;
41115;SDS011;26861;51.824;4.682;2023-06-26T01:00:58;2.85;;;2.10;;
41115;SDS011;26861;51.824;4.682;2023-06-26T01:03:25;2.72;;;2.30;;
41115;SDS011;26861;51.824;4.682;2023-06-26T01:05:52;3.70;;;2.20;;
41115;SDS011;26861;51.824;4.682;2023-06-26T01:08:19;3.47;;;2.13;;
41115;SDS011;26861;51.824;4.682;2023-06-26T01:10:45;4.70;;;2.38;;
41115;SDS011;26861;51.824;4.682;2023-06-26T01:13:12;4.03;;;2.25;;
41115;SDS011;26861;51.824;4.682;2023-06-26T01:15:39;3.85;;;2.25;;
41115;SDS011;26861;51.824;4.682;2023-06-26T01:18:05;2.95;;;2.10;;
41115;SDS011;26861;51.824;4.682;2023-06-26T01:20:31;3.50;;;2.03;;
41115;SDS011;26861;51.824;4.682;2023-06-26T01:23:10;5.00;;;2.30;;
41115;SDS011;26861;51.824;4.682;2023-06-26T01:28:41;2.80;;;2.53;;
41115;SDS011;26861;51.824;4.682;2023-06-26T01:31:08;4.07;;;2.53;;
41115;SDS011;26861;51.824;4.682;2023-06-26T01:33:35;4.50;;;1.90;;
41115;SDS011;26861;51.824;4.682;2023-06-26T01:36:02;4.53;;;2.42;;
41115;SDS011;26861;51.824;4.682;2023-06-26T01:38:29;6.25;;;2.72;;
41115;SDS011;26861;51.824;4.682;2023-06-26T01:40:55;4.20;;;2.30;;
41115;SDS011;26861;51.824;4.682;2023-06-26T01:43:24;3.85;;;2.10;;
41115;SDS011;26861;51.824;4.682;2023-06-26T01:46:02;3.33;;;2.00;;
41115;SDS011;26861;51.824;4.682;2023-06-26T01:48:32;6.45;;;2.65;;
41115;SDS011;26861;51.824;4.682;2023-06-26T01:51:02;3.90;;;2.28;;
41115;SDS011;26861;51.824;4.682;2023-06-26T01:53:31;5.47;;;2.25;;
41115;SDS011;26861;51.824;4.682;2023-06-26T01:56:08;3.83;;;1.85;;
41115;SDS011;26861;51.824;4.682;2023-06-26T01:58:43;4.32;;;2.30;;
41115;SDS011;26861;51.824;4.682;2023-06-26T02:01:11;4.15;;;2.17;;
41115;SDS011;26861;51.824;4.682;2023-06-26T02:03:37;5.55;;;2.30;;
41115;SDS011;26861;51.824;4.682;2023-06-26T02:06:03;4.72;;;2.30;;
41115;SDS011;26861;51.824;4.682;2023-06-26T02:08:29;4.65;;;2.40;;
41115;SDS011;26861;51.824;4.682;2023-06-26T02:10:54;5.57;;;2.88;;
41115;SDS011;26861;51.824;4.682;2023-06-26T02:13:20;3.38;;;2.10;;
41115;SDS011;26861;51.824;4.682;2023-06-26T02:15:45;4.20;;;2.60;;
41115;SDS011;26861;51.824;4.682;2023-06-26T02:18:11;3.88;;;1.98;;
41115;SDS011;26861;51.824;4.682;2023-06-26T02:20:37;3.45;;;1.92;;
41115;SDS011;26861;51.824;4.682;2023-06-26T02:23:04;4.50;;;2.35;;
41115;SDS011;26861;51.824;4.682;2023-06-26T02:25:30;5.13;;;2.50;;
41115;SDS011;26861;51.824;4.682;2023-06-26T02:27:56;5.55;;;2.65;;
41115;SDS011;26861;51.824;4.682;2023-06-26T02:30:22;4.90;;;2.50;;
41115;SDS011;26861;51.824;4.682;2023-06-26T02:32:48;5.05;;;2.65;;
41115;SDS011;26861;51.824;4.682;2023-06-26T02:35:13;5.85;;;2.65;;
41115;SDS011;26861;51.824;4.682;2023-06-26T02:37:39;6.47;;;2.38;;
41115;SDS011;26861;51.824;4.682;2023-06-26T02:40:04;6.03;;;2.75;;
41115;SDS011;26861;51.824;4.682;2023-06-26T02:42:32;6.13;;;2.83;;
41115;SDS011;26861;51.824;4.682;2023-06-26T02:44:58;6.72;;;2.70;;
41115;SDS011;26861;51.824;4.682;2023-06-26T02:47:23;3.88;;;2.42;;
41115;SDS011;26861;51.824;4.682;2023-06-26T02:49:49;7.68;;;2.70;;
41115;SDS011;26861;51.824;4.682;2023-06-26T02:52:15;4.53;;;2.08;;
41115;SDS011;26861;51.824;4.682;2023-06-26T02:54:40;5.30;;;2.80;;
41115;SDS011;26861;51.824;4.682;2023-06-26T02:57:06;6.50;;;2.35;;
41115;SDS011;26861;51.824;4.682;2023-06-26T02:59:32;5.38;;;2.35;;
41115;SDS011;26861;51.824;4.682;2023-06-26T03:01:58;3.15;;;2.08;;
41115;SDS011;26861;51.824;4.682;2023-06-26T03:04:24;4.78;;;2.05;;
41115;SDS011;26861;51.824;4.682;2023-06-26T03:06:49;7.80;;;2.72;;
41115;SDS011;26861;51.824;4.682;2023-06-26T03:09:15;4.53;;;2.53;;
41115;SDS011;26861;51.824;4.682;2023-06-26T03:11:41;4.63;;;2.25;;
41115;SDS011;26861;51.824;4.682;2023-06-26T03:14:08;5.18;;;2.15;;
41115;SDS011;26861;51.824;4.682;2023-06-26T03:16:34;4.00;;;2.20;;
41115;SDS011;26861;51.824;4.682;2023-06-26T03:18:59;4.72;;;2.20;;
41115;SDS011;26861;51.824;4.682;2023-06-26T03:21:25;4.68;;;2.35;;
41115;SDS011;26861;51.824;4.682;2023-06-26T03:23:50;4.43;;;2.63;;
41115;SDS011;26861;51.824;4.682;2023-06-26T03:26:16;3.80;;;2.30;;
41115;SDS011;26861;51.824;4.682;2023-06-26T03:28:42;5.55;;;2.20;;
41115;SDS011;26861;51.824;4.682;2023-06-26T03:31:08;5.88;;;2.58;;
41115;SDS011;26861;51.824;4.682;2023-06-26T03:33:34;5.07;;;2.33;;
41115;SDS011;26861;51.824;4.682;2023-06-26T03:36:00;3.80;;;2.05;;
41115;SDS011;26861;51.824;4.682;2023-06-26T03:38:26;4.47;;;2.60;;
41115;SDS011;26861;51.824;4.682;2023-06-26T03:40:52;3.90;;;2.20;;
41115;SDS011;26861;51.824;4.682;2023-06-26T03:43:18;4.78;;;2.05;;
41115;SDS011;26861;51.824;4.682;2023-06-26T03:45:44;3.15;;;1.90;;
41115;SDS011;26861;51.824;4.682;2023-06-26T03:48:10;3.85;;;2.00;;
41115;SDS011;26861;51.824;4.682;2023-06-26T03:50:35;3.83;;;2.13;;
41115;SDS011;26861;51.824;4.682;2023-06-26T03:53:01;4.43;;;1.77;;
41115;SDS011;26861;51.824;4.682;2023-06-26T03:55:26;4.47;;;2.10;;
41115;SDS011;26861;51.824;4.682;2023-06-26T03:57:52;2.67;;;1.92;;
41115;SDS011;26861;51.824;4.682;2023-06-26T04:00:18;4.07;;;2.03;;
41115;SDS011;26861;51.824;4.682;2023-06-26T04:08:57;2.80;;;1.77;;
41115;SDS011;26861;51.824;4.682;2023-06-26T04:11:24;3.42;;;1.70;;
41115;SDS011;26861;51.824;4.682;2023-06-26T04:13:50;4.35;;;1.83;;
41115;SDS011;26861;51.824;4.682;2023-06-26T04:16:16;2.83;;;1.70;;
41115;SDS011;26861;51.824;4.682;2023-06-26T04:18:43;3.53;;;1.90;;
41115;SDS011;26861;51.824;4.682;2023-06-26T04:21:09;3.65;;;1.80;;
41115;SDS011;26861;51.824;4.682;2023-06-26T04:23:37;3.45;;;2.17;;
41115;SDS011;26861;51.824;4.682;2023-06-26T04:26:05;4.20;;;2.00;;
41115;SDS011;26861;51.824;4.682;2023-06-26T04:28:32;2.90;;;1.90;;
41115;SDS011;26861;51.824;4.682;2023-06-26T04:30:59;2.47;;;1.60;;
41115;SDS011;26861;51.824;4.682;2023-06-26T04:33:25;3.17;;;2.00;;
41115;SDS011;26861;51.824;4.682;2023-06-26T04:35:51;2.08;;;1.40;;
41115;SDS011;26861;51.824;4.682;2023-06-26T04:38:18;3.38;;;1.80;;
41115;SDS011;26861;51.824;4.682;2023-06-26T04:40:44;9.38;;;2.03;;
41115;SDS011;26861;51.824;4.682;2023-06-26T04:43:10;3.60;;;1.90;;
41115;SDS011;26861;51.824;4.682;2023-06-26T04:45:36;3.45;;;2.00;;
41115;SDS011;26861;51.824;4.682;2023-06-26T04:48:02;3.08;;;2.15;;
41115;SDS011;26861;51.824;4.682;2023-06-26T04:50:28;3.53;;;1.70;;
41115;SDS011;26861;51.824;4.682;2023-06-26T04:52:55;2.92;;;1.60;;
41115;SDS011;26861;51.824;4.682;2023-06-26T04:55:23;3.92;;;1.90;;
41115;SDS011;26861;51.824;4.682;2023-06-26T04:57:49;2.42;;;1.73;;
41115;SDS011;26861;51.824;4.682;2023-06-26T05:00:15;2.92;;;1.65;;
41115;SDS011;26861;51.824;4.682;2023-06-26T05:02:41;2.70;;;1.70;;
41115;SDS011;26861;51.824;4.682;2023-06-26T05:05:07;3.75;;;1.98;;
41115;SDS011;26861;51.824;4.682;2023-06-26T05:07:33;4.15;;;1.95;;
41115;SDS011;26861;51.824;4.682;2023-06-26T05:09:59;3.47;;;1.70;;
41115;SDS011;26861;51.824;4.682;2023-06-26T05:12:24;4.88;;;2.28;;
41115;SDS011;26861;51.824;4.682;2023-06-26T05:14:50;2.97;;;1.92;;
41115;SDS011;26861;51.824;4.682;2023-06-26T05:17:18;4.63;;;1.77;;
41115;SDS011;26861;51.824;4.682;2023-06-26T05:19:44;4.03;;;1.90;;
41115;SDS011;26861;51.824;4.682;2023-06-26T05:22:09;3.35;;;2.15;;
41115;SDS011;26861;51.824;4.682;2023-06-26T05:24:37;2.78;;;1.70;;
41115;SDS011;26861;51.824;4.682;2023-06-26T05:27:03;3.58;;;1.83;;
41115;SDS011;26861;51.824;4.682;2023-06-26T05:29:30;4.03;;;2.00;;
41115;SDS011;26861;51.824;4.682;2023-06-26T05:31:56;4.95;;;1.90;;
41115;SDS011;26861;51.824;4.682;2023-06-26T05:34:22;2.78;;;1.50;;
41115;SDS011;26861;51.824;4.682;2023-06-26T05:36:50;3.55;;;1.75;;
41115;SDS011;26861;51.824;4.682;2023-06-26T05:39:17;2.67;;;1.80;;
41115;SDS011;26861;51.824;4.682;2023-06-26T05:41:43;3.25;;;1.65;;
41115;SDS011;26861;51.824;4.682;2023-06-26T05:44:09;2.17;;;1.40;;
41115;SDS011;26861;51.824;4.682;2023-06-26T05:46:35;4.80;;;1.70;;
41115;SDS011;26861;51.824;4.682;2023-06-26T05:49:01;2.88;;;1.30;;
41115;SDS011;26861;51.824;4.682;2023-06-26T05:51:27;3.20;;;2.08;;
41115;SDS011;26861;51.824;4.682;2023-06-26T05:53:53;3.47;;;2.00;;
41115;SDS011;26861;51.824;4.682;2023-06-26T05:56:19;2.58;;;1.48;;
41115;SDS011;26861;51.824;4.682;2023-06-26T05:58:45;3.25;;;1.50;;
41115;SDS011;26861;51.824;4.682;2023-06-26T06:01:12;2.50;;;1.58;;
41115;SDS011;26861;51.824;4.682;2023-06-26T06:03:38;4.43;;;1.80;;
41115;SDS011;26861;51.824;4.682;2023-06-26T06:06:05;2.45;;;1.65;;
41115;SDS011;26861;51.824;4.682;2023-06-26T06:08:30;4.05;;;1.83;;
41115;SDS011;26861;51.824;4.682;2023-06-26T06:10:57;2.92;;;1.50;;
41115;SDS011;26861;51.824;4.682;2023-06-26T06:13:25;2.28;;;1.50;;
41115;SDS011;26861;51.824;4.682;2023-06-26T06:15:51;3.33;;;1.30;;
41115;SDS011;26861;51.824;4.682;2023-06-26T06:18:17;3.30;;;1.45;;
41115;SDS011;26861;51.824;4.682;2023-06-26T06:20:43;7.45;;;1.80;;
41115;SDS011;26861;51.824;4.682;2023-06-26T06:23:09;3.08;;;1.45;;
41115;SDS011;26861;51.824;4.682;2023-06-26T06:25:35;2.80;;;1.48;;
41115;SDS011;26861;51.824;4.682;2023-06-26T06:28:01;1.83;;;1.20;;
41115;SDS011;26861;51.824;4.682;2023-06-26T06:30:29;3.20;;;1.27;;
41115;SDS011;26861;51.824;4.682;2023-06-26T06:32:55;4.40;;;1.27;;
41115;SDS011;26861;51.824;4.682;2023-06-26T06:35:23;2.97;;;1.20;;
41115;SDS011;26861;51.824;4.682;2023-06-26T06:37:49;2.88;;;1.00;;
41115;SDS011;26861;51.824;4.682;2023-06-26T06:40:15;3.17;;;1.13;;
41115;SDS011;26861;51.824;4.682;2023-06-26T06:42:41;3.83;;;1.20;;
41115;SDS011;26861;51.824;4.682;2023-06-26T06:45:07;3.70;;;1.27;;
41115;SDS011;26861;51.824;4.682;2023-06-26T06:47:34;3.22;;;1.23;;
41115;SDS011;26861;51.824;4.682;2023-06-26T06:50:00;4.55;;;1.00;;
41115;SDS011;26861;51.824;4.682;2023-06-26T06:52:38;2.20;;;0.82;;
41115;SDS011;26861;51.824;4.682;2023-06-26T06:55:06;2.67;;;1.23;;
41115;SDS011;26861;51.824;4.682;2023-06-26T06:57:35;4.13;;;1.10;;
41115;SDS011;26861;51.824;4.682;2023-06-26T07:02:35;4.47;;;1.35;;
41115;SDS011;26861;51.824;4.682;2023-06-26T07:05:01;2.53;;;0.88;;
41115;SDS011;26861;51.824;4.682;2023-06-26T07:07:29;2.85;;;0.98;;
41115;SDS011;26861;51.824;4.682;2023-06-26T07:09:59;5.18;;;0.75;;
41115;SDS011;26861;51.824;4.682;2023-06-26T07:12:27;4.03;;;0.95;;
41115;SDS011;26861;51.824;4.682;2023-06-26T07:14:53;1.55;;;0.70;;
41115;SDS011;26861;51.824;4.682;2023-06-26T07:17:20;4.95;;;1.00;;
41115;SDS011;26861;51.824;4.682;2023-06-26T07:19:47;4.00;;;1.00;;
41115;SDS011;26861;51.824;4.682;2023-06-26T07:22:14;5.82;;;1.10;;
41115;SDS011;26861;51.824;4.682;2023-06-26T07:24:40;3.95;;;1.27;;
41115;SDS011;26861;51.824;4.682;2023-06-26T07:27:06;4.15;;;1.27;;
41115;SDS011;26861;51.824;4.682;2023-06-26T07:29:32;5.90;;;1.42;;
41115;SDS011;26861;51.824;4.682;2023-06-26T07:31:58;5.47;;;1.25;;
41115;SDS011;26861;51.824;4.682;2023-06-26T07:34:24;5.10;;;1.30;;
41115;SDS011;26861;51.824;4.682;2023-06-26T07:36:50;2.10;;;0.88;;
41115;SDS011;26861;51.824;4.682;2023-06-26T07:39:16;2.63;;;1.05;;
41115;SDS011;26861;51.824;4.682;2023-06-26T07:41:42;3.83;;;1.02;;
41115;SDS011;26861;51.824;4.682;2023-06-26T07:44:09;2.45;;;0.88;;
41115;SDS011;26861;51.824;4.682;2023-06-26T07:46:35;5.63;;;1.00;;
41115;SDS011;26861;51.824;4.682;2023-06-26T07:49:01;3.67;;;0.80;;
41115;SDS011;26861;51.824;4.682;2023-06-26T07:51:27;2.05;;;0.80;;
41115;SDS011;26861;51.824;4.682;2023-06-26T07:53:53;4.07;;;0.95;;
41115;SDS011;26861;51.824;4.682;2023-06-26T07:56:19;1.98;;;1.00;;
41115;SDS011;26861;51.824;4.682;2023-06-26T07:58:45;2.03;;;0.80;;
41115;SDS011;26861;51.824;4.682;2023-06-26T08:01:10;2.40;;;0.82;;
41115;SDS011;26861;51.824;4.682;2023-06-26T08:03:36;2.35;;;0.93;;
41115;SDS011;26861;51.824;4.682;2023-06-26T08:06:02;4.25;;;1.05;;
41115;SDS011;26861;51.824;4.682;2023-06-26T08:08:28;3.30;;;1.00;;
41115;SDS011;26861;51.824;4.682;2023-06-26T08:10:54;2.75;;;0.95;;
41115;SDS011;26861;51.824;4.682;2023-06-26T08:13:19;4.15;;;0.80;;
41115;SDS011;26861;51.824;4.682;2023-06-26T08:15:45;5.05;;;0.98;;
41115;SDS011;26861;51.824;4.682;2023-06-26T08:18:11;3.97;;;1.33;;
41115;SDS011;26861;51.824;4.682;2023-06-26T08:20:36;2.83;;;1.15;;
41115;SDS011;26861;51.824;4.682;2023-06-26T08:23:03;3.95;;;0.95;;
41115;SDS011;26861;51.824;4.682;2023-06-26T08:25:29;1.50;;;0.90;;
41115;SDS011;26861;51.824;4.682;2023-06-26T08:27:56;2.85;;;1.05;;
41115;SDS011;26861;51.824;4.682;2023-06-26T08:30:22;3.60;;;1.13;;
41115;SDS011;26861;51.824;4.682;2023-06-26T08:32:56;3.80;;;1.10;;
41115;SDS011;26861;51.824;4.682;2023-06-26T08:35:22;4.03;;;1.02;;
41115;SDS011;26861;51.824;4.682;2023-06-26T08:37:48;3.55;;;0.90;;
41115;SDS011;26861;51.824;4.682;2023-06-26T08:40:16;2.80;;;1.08;;
41115;SDS011;26861;51.824;4.682;2023-06-26T08:42:44;2.78;;;1.10;;
41115;SDS011;26861;51.824;4.682;2023-06-26T08:45:11;5.75;;;1.10;;
41115;SDS011;26861;51.824;4.682;2023-06-26T08:47:38;1.80;;;0.77;;
41115;SDS011;26861;51.824;4.682;2023-06-26T08:50:08;2.47;;;0.75;;
41115;SDS011;26861;51.824;4.682;2023-06-26T08:52:43;5.68;;;1.38;;
41115;SDS011;26861;51.824;4.682;2023-06-26T08:55:15;5.32;;;1.20;;
41115;SDS011;26861;51.824;4.682;2023-06-26T08:57:43;2.03;;;0.88;;
41115;SDS011;26861;51.824;4.682;2023-06-26T09:00:09;3.40;;;1.00;;
41115;SDS011;26861;51.824;4.682;2023-06-26T09:02:36;3.72;;;0.75;;
41115;SDS011;26861;51.824;4.682;2023-06-26T09:05:02;3.08;;;0.85;;
41115;SDS011;26861;51.824;4.682;2023-06-26T09:07:28;3.75;;;0.93;;
41115;SDS011;26861;51.824;4.682;2023-06-26T09:09:54;3.80;;;0.95;;
41115;SDS011;26861;51.824;4.682;2023-06-26T09:12:20;5.97;;;1.10;;
41115;SDS011;26861;51.824;4.682;2023-06-26T09:14:46;4.18;;;1.23;;
41115;SDS011;26861;51.824;4.682;2023-06-26T09:17:15;2.45;;;0.90;;
41115;SDS011;26861;51.824;4.682;2023-06-26T09:19:41;2.47;;;0.93;;
41115;SDS011;26861;51.824;4.682;2023-06-26T09:22:11;1.50;;;0.60;;
41115;SDS011;26861;51.824;4.682;2023-06-26T09:24:38;1.77;;;0.75;;
41115;SDS011;26861;51.824;4.682;2023-06-26T09:27:06;3.15;;;0.98;;
41115;SDS011;26861;51.824;4.682;2023-06-26T09:29:32;2.85;;;1.00;;
41115;SDS011;26861;51.824;4.682;2023-06-26T09:31:59;1.20;;;0.50;;
41115;SDS011;26861;51.824;4.682;2023-06-26T09:34:31;2.95;;;1.00;;
41115;SDS011;26861;51.824;4.682;2023-06-26T09:36:58;1.63;;;1.00;;
41115;SDS011;26861;51.824;4.682;2023-06-26T09:39:24;3.80;;;1.00;;
41115;SDS011;26861;51.824;4.682;2023-06-26T09:41:49;3.95;;;1.20;;
41115;SDS011;26861;51.824;4.682;2023-06-26T09:44:15;3.83;;;1.15;;
41115;SDS011;26861;51.824;4.682;2023-06-26T09:46:44;2.65;;;0.95;;
41115;SDS011;26861;51.824;4.682;2023-06-26T09:49:12;1.52;;;0.90;;
41115;SDS011;26861;51.824;4.682;2023-06-26T09:51:39;2.00;;;0.93;;
41115;SDS011;26861;51.824;4.682;2023-06-26T09:54:06;3.22;;;1.05;;
41115;SDS011;26861;51.824;4.682;2023-06-26T09:56:32;6.00;;;1.20;;
41115;SDS011;26861;51.824;4.682;2023-06-26T09:59:02;3.45;;;1.00;;
41115;SDS011;26861;51.824;4.682;2023-06-26T10:01:30;2.40;;;0.93;;
41115;SDS011;26861;51.824;4.682;2023-06-26T10:03:57;3.00;;;1.00;;
41115;SDS011;26861;51.824;4.682;2023-06-26T10:06:25;3.63;;;0.90;;
41115;SDS011;26861;51.824;4.682;2023-06-26T10:08:57;3.47;;;0.90;;
41115;SDS011;26861;51.824;4.682;2023-06-26T10:11:25;3.13;;;1.05;;
41115;SDS011;26861;51.824;4.682;2023-06-26T10:13:57;2.08;;;1.00;;
41115;SDS011;26861;51.824;4.682;2023-06-26T10:16:25;5.50;;;0.80;;
41115;SDS011;26861;51.824;4.682;2023-06-26T10:21:24;4.28;;;1.17;;
41115;SDS011;26861;51.824;4.682;2023-06-26T10:23:52;4.97;;;1.00;;
41115;SDS011;26861;51.824;4.682;2023-06-26T10:26:20;2.17;;;0.70;;
41115;SDS011;26861;51.824;4.682;2023-06-26T10:28:47;3.97;;;1.05;;
41115;SDS011;26861;51.824;4.682;2023-06-26T10:31:17;1.42;;;0.82;;
41115;SDS011;26861;51.824;4.682;2023-06-26T10:33:46;5.13;;;1.25;;
41115;SDS011;26861;51.824;4.682;2023-06-26T10:36:14;3.58;;;1.13;;
41115;SDS011;26861;51.824;4.682;2023-06-26T10:38:51;4.07;;;1.10;;
41115;SDS011;26861;51.824;4.682;2023-06-26T10:41:21;1.87;;;0.73;;
41115;SDS011;26861;51.824;4.682;2023-06-26T10:46:33;3.90;;;0.88;;
41115;SDS011;26861;51.824;4.682;2023-06-26T10:49:25;1.15;;;0.85;;
41115;SDS011;26861;51.824;4.682;2023-06-26T10:51:54;4.45;;;1.55;;
41115;SDS011;26861;51.824;4.682;2023-06-26T10:54:23;2.38;;;1.00;;
41115;SDS011;26861;51.824;4.682;2023-06-26T10:56:49;3.00;;;1.05;;
41115;SDS011;26861;51.824;4.682;2023-06-26T10:59:23;4.00;;;1.33;;
41115;SDS011;26861;51.824;4.682;2023-06-26T11:02:00;1.95;;;0.93;;
41115;SDS011;26861;51.824;4.682;2023-06-26T11:04:40;3.83;;;0.90;;
41115;SDS011;26861;51.824;4.682;2023-06-26T11:12:45;1.30;;;0.68;;
41115;SDS011;26861;51.824;4.682;2023-06-26T11:15:14;2.28;;;1.17;;
41115;SDS011;26861;51.824;4.682;2023-06-26T11:17:41;3.88;;;0.65;;
41115;SDS011;26861;51.824;4.682;2023-06-26T11:20:09;1.73;;;0.90;;
41115;SDS011;26861;51.824;4.682;2023-06-26T11:22:40;3.22;;;1.10;;
41115;SDS011;26861;51.824;4.682;2023-06-26T11:25:06;2.05;;;0.82;;
41115;SDS011;26861;51.824;4.682;2023-06-26T11:27:40;2.10;;;0.63;;
41115;SDS011;26861;51.824;4.682;2023-06-26T11:30:07;4.25;;;1.02;;
41115;SDS011;26861;51.824;4.682;2023-06-26T11:32:34;2.08;;;0.77;;
41115;SDS011;26861;51.824;4.682;2023-06-26T11:35:05;1.63;;;0.73;;
41115;SDS011;26861;51.824;4.682;2023-06-26T11:37:32;1.80;;;0.85;;
41115;SDS011;26861;51.824;4.682;2023-06-26T11:39:59;1.73;;;0.70;;
41115;SDS011;26861;51.824;4.682;2023-06-26T11:42:25;1.60;;;0.80;;
41115;SDS011;26861;51.824;4.682;2023-06-26T11:44:51;1.75;;;1.00;;
41115;SDS011;26861;51.824;4.682;2023-06-26T11:47:19;2.17;;;1.00;;
41115;SDS011;26861;51.824;4.682;2023-06-26T11:49:47;2.67;;;0.98;;
41115;SDS011;26861;51.824;4.682;2023-06-26T11:52:15;2.88;;;0.80;;
41115;SDS011;26861;51.824;4.682;2023-06-26T11:54:41;1.48;;;0.70;;
41115;SDS011;26861;51.824;4.682;2023-06-26T11:57:08;2.13;;;0.70;;
41115;SDS011;26861;51.824;4.682;2023-06-26T11:59:40;1.15;;;0.68;;
41115;SDS011;26861;51.824;4.682;2023-06-26T12:02:09;4.32;;;0.70;;
41115;SDS011;26861;51.824;4.682;2023-06-26T12:04:38;1.85;;;0.80;;
41115;SDS011;26861;51.824;4.682;2023-06-26T12:07:07;2.63;;;0.70;;
41115;SDS011;26861;51.824;4.682;2023-06-26T12:09:45;1.70;;;0.70;;
41115;SDS011;26861;51.824;4.682;2023-06-26T12:12:16;2.75;;;0.80;;
41115;SDS011;26861;51.824;4.682;2023-06-26T12:14:43;1.40;;;0.60;;
41115;SDS011;26861;51.824;4.682;2023-06-26T12:17:11;1.95;;;0.60;;
41115;SDS011;26861;51.824;4.682;2023-06-26T12:19:45;1.40;;;0.68;;
41115;SDS011;26861;51.824;4.682;2023-06-26T12:22:15;0.90;;;0.50;;
41115;SDS011;26861;51.824;4.682;2023-06-26T12:24:43;1.30;;;0.60;;
41115;SDS011;26861;51.824;4.682;2023-06-26T12:27:10;1.58;;;0.73;;
41115;SDS011;26861;51.824;4.682;2023-06-26T12:29:38;1.05;;;0.60;;
41115;SDS011;26861;51.824;4.682;2023-06-26T12:32:09;0.93;;;0.47;;
41115;SDS011;26861;51.824;4.682;2023-06-26T12:34:37;2.67;;;0.70;;
41115;SDS011;26861;51.824;4.682;2023-06-26T12:37:05;1.55;;;0.40;;
41115;SDS011;26861;51.824;4.682;2023-06-26T12:42:20;1.95;;;0.63;;
41115;SDS011;26861;51.824;4.682;2023-06-26T12:44:47;2.03;;;0.60;;
41115;SDS011;26861;51.824;4.682;2023-06-26T12:47:15;3.58;;;0.68;;
41115;SDS011;26861;51.824;4.682;2023-06-26T12:49:43;1.83;;;0.50;;
41115;SDS011;26861;51.824;4.682;2023-06-26T12:52:14;2.00;;;0.60;;
41115;SDS011;26861;51.824;4.682;2023-06-26T12:54:41;3.45;;;0.70;;
41115;SDS011;26861;51.824;4.682;2023-06-26T12:57:09;3.20;;;0.80;;
41115;SDS011;26861;51.824;4.682;2023-06-26T12:59:36;1.25;;;0.55;;
41115;SDS011;26861;51.824;4.682;2023-06-26T13:02:03;0.60;;;0.57;;
41115;SDS011;26861;51.824;4.682;2023-06-26T13:04:30;1.27;;;0.50;;
41115;SDS011;26861;51.824;4.682;2023-06-26T13:06:56;1.73;;;0.70;;
41115;SDS011;26861;51.824;4.682;2023-06-26T13:09:23;2.08;;;0.70;;
41115;SDS011;26861;51.824;4.682;2023-06-26T13:11:53;2.92;;;0.82;;
41115;SDS011;26861;51.824;4.682;2023-06-26T13:16:46;1.80;;;0.68;;
41115;SDS011;26861;51.824;4.682;2023-06-26T13:19:12;1.60;;;0.80;;
41115;SDS011;26861;51.824;4.682;2023-06-26T13:21:39;1.90;;;0.57;;
41115;SDS011;26861;51.824;4.682;2023-06-26T13:24:05;2.85;;;0.98;;
41115;SDS011;26861;51.824;4.682;2023-06-26T13:26:31;2.17;;;0.70;;
41115;SDS011;26861;51.824;4.682;2023-06-26T13:28:58;1.60;;;0.77;;
41115;SDS011;26861;51.824;4.682;2023-06-26T13:31:24;1.48;;;0.63;;
41115;SDS011;26861;51.824;4.682;2023-06-26T13:33:50;3.60;;;0.55;;
41115;SDS011;26861;51.824;4.682;2023-06-26T13:36:20;1.77;;;0.60;;
41115;SDS011;26861;51.824;4.682;2023-06-26T13:38:46;1.50;;;0.80;;
41115;SDS011;26861;51.824;4.682;2023-06-26T13:41:15;2.25;;;0.80;;
41115;SDS011;26861;51.824;4.682;2023-06-26T13:43:42;2.63;;;0.82;;
41115;SDS011;26861;51.824;4.682;2023-06-26T13:46:08;1.90;;;0.70;;
41115;SDS011;26861;51.824;4.682;2023-06-26T13:48:34;1.38;;;0.68;;
41115;SDS011;26861;51.824;4.682;2023-06-26T13:51:00;2.80;;;0.50;;
41115;SDS011;26861;51.824;4.682;2023-06-26T13:53:26;1.70;;;0.52;;
41115;SDS011;26861;51.824;4.682;2023-06-26T13:55:52;2.60;;;0.80;;
41115;SDS011;26861;51.824;4.682;2023-06-26T13:58:18;2.10;;;0.70;;
41115;SDS011;26861;51.824;4.682;2023-06-26T14:00:44;1.75;;;0.70;;
41115;SDS011;26861;51.824;4.682;2023-06-26T14:03:10;3.00;;;0.73;;
41115;SDS011;26861;51.824;4.682;2023-06-26T14:05:36;1.55;;;0.50;;
41115;SDS011;26861;51.824;4.682;2023-06-26T14:08:03;1.65;;;0.50;;
41115;SDS011;26861;51.824;4.682;2023-06-26T14:10:31;2.08;;;0.93;;
41115;SDS011;26861;51.824;4.682;2023-06-26T14:12:59;1.52;;;0.65;;
41115;SDS011;26861;51.824;4.682;2023-06-26T14:15:25;1.65;;;0.63;;
41115;SDS011;26861;51.824;4.682;2023-06-26T14:17:52;1.20;;;0.43;;
41115;SDS011;26861;51.824;4.682;2023-06-26T14:20:18;1.40;;;0.60;;
41115;SDS011;26861;51.824;4.682;2023-06-26T14:22:46;1.67;;;0.80;;
41115;SDS011;26861;51.824;4.682;2023-06-26T14:25:12;1.38;;;0.60;;
41115;SDS011;26861;51.824;4.682;2023-06-26T14:27:38;1.38;;;0.57;;
41115;SDS011;26861;51.824;4.682;2023-06-26T14:30:04;2.47;;;0.77;;
41115;SDS011;26861;51.824;4.682;2023-06-26T14:32:30;2.17;;;0.60;;
41115;SDS011;26861;51.824;4.682;2023-06-26T14:34:56;1.40;;;0.60;;
41115;SDS011;26861;51.824;4.682;2023-06-26T14:37:23;1.95;;;0.40;;
41115;SDS011;26861;51.824;4.682;2023-06-26T14:39:51;3.38;;;0.70;;
41115;SDS011;26861;51.824;4.682;2023-06-26T14:42:17;1.10;;;0.50;;
41115;SDS011;26861;51.824;4.682;2023-06-26T14:44:43;2.85;;;1.00;;
41115;SDS011;26861;51.824;4.682;2023-06-26T14:47:12;2.05;;;0.80;;
41115;SDS011;26861;51.824;4.682;2023-06-26T14:49:39;1.88;;;0.73;;
41115;SDS011;26861;51.824;4.682;2023-06-26T14:52:05;1.50;;;0.68;;
41115;SDS011;26861;51.824;4.682;2023-06-26T14:54:31;3.15;;;0.70;;
41115;SDS011;26861;51.824;4.682;2023-06-26T14:56:57;1.13;;;0.60;;
41115;SDS011;26861;51.824;4.682;2023-06-26T14:59:23;1.70;;;0.60;;
41115;SDS011;26861;51.824;4.682;2023-06-26T15:01:49;2.20;;;0.60;;
41115;SDS011;26861;51.824;4.682;2023-06-26T15:04:14;2.47;;;0.57;;
41115;SDS011;26861;51.824;4.682;2023-06-26T15:06:40;1.27;;;0.63;;
41115;SDS011;26861;51.824;4.682;2023-06-26T15:09:06;1.80;;;0.80;;
41115;SDS011;26861;51.824;4.682;2023-06-26T15:11:34;1.90;;;0.70;;
41115;SDS011;26861;51.824;4.682;2023-06-26T15:14:01;3.88;;;1.02;;
41115;SDS011;26861;51.824;4.682;2023-06-26T15:16:27;1.35;;;0.60;;